createdAt,value
2019-06-08T00:00:33.886Z,52539.41
2019-06-08T00:03:02.553Z,52431.91
2019-06-08T00:05:31.254Z,52435.97
2019-06-08T00:07:59.648Z,52405.54
2019-06-08T00:10:28.019Z,52462.34
2019-06-08T00:12:56.422Z,52483.63
2019-06-08T00:15:24.822Z,52407.57
2019-06-08T00:17:53.482Z,52417.71
2019-06-08T00:20:21.976Z,52328.47
2019-06-08T00:22:50.351Z,52317.32
2019-06-08T00:25:20.517Z,52251.40
2019-06-08T00:27:49.462Z,52250.38
2019-06-08T00:30:18.455Z,52453.21
2019-06-08T00:32:46.842Z,52343.68
2019-06-08T00:35:16.560Z,52395.40
2019-06-08T00:37:45.050Z,52451.18
2019-06-08T00:40:14.783Z,52441.04
2019-06-08T00:42:43.354Z,52561.72
2019-06-08T00:45:13.102Z,52463.35
2019-06-08T00:47:47.482Z,52540.43
2019-06-08T00:50:12.345Z,52731.10
2019-06-08T00:52:40.722Z,52656.04
2019-06-08T00:55:09.664Z,52865.99
2019-06-08T00:57:38.545Z,52910.62
2019-06-08T01:00:10.561Z,52956.26
2019-06-08T01:02:38.183Z,52858.89
2019-06-08T01:05:07.995Z,52934.96
2019-06-08T01:07:36.382Z,53191.58
2019-06-08T01:10:07.031Z,53226.06
2019-06-08T01:12:35.709Z,53217.95
2019-06-08T01:15:07.577Z,53173.32
2019-06-08T01:17:35.957Z,53196.65
2019-06-08T01:20:07.445Z,53279.82
2019-06-08T01:22:35.991Z,53182.45
2019-06-08T01:25:05.850Z,53367.06
2019-06-08T01:27:34.494Z,53378.22
2019-06-08T01:30:03.957Z,53386.34
2019-06-08T01:32:32.426Z,53505.02
2019-06-08T01:35:00.813Z,53344.75
2019-06-08T01:37:29.208Z,53533.43
2019-06-08T01:39:57.606Z,53570.96
2019-06-08T01:42:26.008Z,53456.33
2019-06-08T01:44:54.408Z,53381.26
2019-06-08T01:47:24.518Z,53287.94
2019-06-08T01:49:53.067Z,53259.54
2019-06-08T01:52:22.513Z,53330.54
2019-06-08T01:54:51.213Z,53189.55
2019-06-08T01:57:19.625Z,53312.29
2019-06-08T01:59:48.024Z,53206.79
2019-06-08T02:02:16.415Z,53293.01
2019-06-08T02:04:44.861Z,53418.80
2019-06-08T02:07:13.376Z,53237.22
2019-06-08T02:09:42.024Z,53285.91
2019-06-08T02:12:10.410Z,53305.18
2019-06-08T02:14:39.104Z,53328.52
2019-06-08T02:17:07.782Z,53233.17
2019-06-08T02:19:36.174Z,53380.25
2019-06-08T02:22:04.556Z,53437.05
2019-06-08T02:24:33.389Z,53387.35
2019-06-08T02:27:01.739Z,53377.21
2019-06-08T02:29:31.332Z,53323.44
2019-06-08T02:32:00.355Z,53342.71
2019-06-08T02:34:30.565Z,53326.49
2019-06-08T02:36:58.876Z,53339.67
2019-06-08T02:39:28.476Z,53412.71
2019-06-08T02:41:56.931Z,53354.89
2019-06-08T02:44:25.353Z,53380.25
2019-06-08T02:46:54.012Z,53388.36
2019-06-08T02:49:22.400Z,53368.08
2019-06-08T02:51:51.135Z,53348.80
2019-06-08T02:54:19.991Z,53534.44
2019-06-08T02:56:51.400Z,53466.47
2019-06-08T02:59:22.840Z,53330.54
2019-06-08T03:01:52.804Z,53426.91
2019-06-08T03:04:24.006Z,53647.04
2019-06-08T03:06:53.448Z,53550.67
2019-06-08T03:09:23.617Z,53559.80
2019-06-08T03:11:55.339Z,53538.50
2019-06-08T03:14:27.656Z,53584.14
2019-06-08T03:16:56.390Z,53495.89
2019-06-08T03:19:24.745Z,53562.84
2019-06-08T03:21:53.147Z,53786.02
2019-06-08T03:24:21.532Z,53704.87
2019-06-08T03:26:49.961Z,53790.08
2019-06-08T03:29:18.339Z,53873.27
2019-06-08T03:31:55.058Z,53874.29
2019-06-08T03:34:16.878Z,53855.01
2019-06-08T03:36:54.493Z,53815.45
2019-06-08T03:39:15.451Z,53762.69
2019-06-08T03:41:45.245Z,53933.13
2019-06-08T03:44:13.824Z,53672.40
2019-06-08T03:46:44.072Z,53980.81
2019-06-08T03:49:12.553Z,53916.89
2019-06-08T03:51:45.780Z,54020.38
2019-06-08T03:54:11.419Z,53908.78
2019-06-08T03:56:40.188Z,53961.53
2019-06-08T03:59:09.924Z,53939.21
2019-06-08T04:01:39.788Z,53961.53
2019-06-08T04:04:08.991Z,53968.64
2019-06-08T04:06:37.783Z,53843.85
2019-06-08T04:09:07.708Z,53998.05
2019-06-08T04:11:37.775Z,53991.97
2019-06-08T04:14:06.454Z,53991.97
2019-06-08T04:16:34.830Z,54087.34
2019-06-08T04:19:03.222Z,54076.18
2019-06-08T04:21:31.868Z,53976.75
2019-06-08T04:24:00.252Z,53957.48
2019-06-08T04:26:28.966Z,54026.46
2019-06-08T04:28:57.359Z,54006.18
2019-06-08T04:31:26.122Z,54147.20
2019-06-08T04:33:54.513Z,54040.67
2019-06-08T04:36:22.915Z,54090.38
2019-06-08T04:38:51.311Z,54153.29
2019-06-08T04:41:19.990Z,54128.94
2019-06-08T04:43:49.903Z,54292.29
2019-06-08T04:46:18.608Z,54221.26
2019-06-08T04:48:50.062Z,54255.76
2019-06-08T04:51:18.589Z,54635.24
2019-06-08T04:53:47.307Z,54643.36
2019-06-08T04:56:17.432Z,54667.71
2019-06-08T04:58:46.814Z,54870.66
2019-06-08T05:01:16.237Z,54898.06
2019-06-08T05:03:45.597Z,54970.11
2019-06-08T05:06:14.771Z,55326.32
2019-06-08T05:08:43.238Z,55320.23
2019-06-08T05:11:11.624Z,55490.73
2019-06-08T05:13:41.094Z,55383.15
2019-06-08T05:16:09.597Z,55423.75
2019-06-08T05:18:39.191Z,55624.70
2019-06-08T05:21:07.692Z,55687.63
2019-06-08T05:23:36.076Z,55346.61
2019-06-08T05:26:04.995Z,55591.21
2019-06-08T05:28:33.382Z,55688.65
2019-06-08T05:31:01.846Z,55680.53
2019-06-08T05:33:30.541Z,55750.56
2019-06-08T05:35:58.930Z,55774.92
2019-06-08T05:38:27.328Z,55802.33
2019-06-08T05:40:55.710Z,55681.54
2019-06-08T05:43:24.106Z,55643.99
2019-06-08T05:45:52.489Z,55704.89
2019-06-08T05:48:20.885Z,55703.87
2019-06-08T05:51:00.198Z,55652.11
2019-06-08T05:53:19.422Z,55628.76
2019-06-08T05:55:48.041Z,55654.14
2019-06-08T05:58:16.422Z,55669.36
2019-06-08T06:00:46.257Z,55732.29
2019-06-08T06:03:14.691Z,55732.29
2019-06-08T06:05:44.285Z,55596.29
2019-06-08T06:08:18.864Z,55531.33
2019-06-08T06:10:42.964Z,55581.06
2019-06-08T06:13:11.367Z,55642.97
2019-06-08T06:15:40.968Z,55699.81
2019-06-08T06:18:09.435Z,55681.54
2019-06-08T06:20:37.828Z,55572.94
2019-06-08T06:23:06.321Z,55662.26
2019-06-08T06:25:34.972Z,55521.18
2019-06-08T06:28:06.198Z,55564.82
2019-06-08T06:30:33.512Z,55580.05
2019-06-08T06:33:01.906Z,55417.66
2019-06-08T06:35:30.327Z,55449.12
2019-06-08T06:37:58.730Z,55527.27
2019-06-08T06:40:27.128Z,55496.82
2019-06-08T06:42:55.547Z,55427.81
2019-06-08T06:45:24.207Z,55455.21
2019-06-08T06:47:52.787Z,55534.37
2019-06-08T06:50:21.184Z,55462.31
2019-06-08T06:52:50.769Z,55438.97
2019-06-08T06:55:19.136Z,55323.27
2019-06-08T06:57:47.580Z,55393.30
2019-06-08T07:00:19.301Z,55554.67
2019-06-08T07:02:47.699Z,55350.68
2019-06-08T07:05:16.159Z,55405.48
2019-06-08T07:07:45.896Z,55487.69
2019-06-08T07:10:15.127Z,55367.93
2019-06-08T07:12:44.456Z,55397.36
2019-06-08T07:15:16.270Z,55444.05
2019-06-08T07:17:45.958Z,55373.00
2019-06-08T07:20:14.958Z,55207.58
2019-06-08T07:22:43.381Z,55486.67
2019-06-08T07:25:12.104Z,55365.90
2019-06-08T07:27:40.831Z,55565.84
2019-06-08T07:30:09.581Z,55607.45
2019-06-08T07:32:38.320Z,55552.64
2019-06-08T07:35:11.451Z,55473.48
2019-06-08T07:37:45.555Z,55321.24
2019-06-08T07:40:14.502Z,55623.69
2019-06-08T07:42:42.904Z,55525.24
2019-06-08T07:45:13.575Z,55456.22
2019-06-08T07:47:41.929Z,55465.36
2019-06-08T07:50:10.660Z,55412.58
2019-06-08T07:52:42.409Z,55427.81
2019-06-08T07:55:11.458Z,55310.08
2019-06-08T07:57:39.863Z,55526.25
2019-06-08T08:00:09.791Z,55459.27
2019-06-08T08:02:38.413Z,55476.52
2019-06-08T08:05:09.607Z,55312.11
2019-06-08T08:07:39.585Z,55352.70
2019-06-08T08:10:10.144Z,55381.12
2019-06-08T08:12:38.623Z,55475.51
2019-06-08T08:15:08.768Z,55441.00
2019-06-08T08:17:45.955Z,55386.20
2019-06-08T08:20:15.027Z,55332.41
2019-06-08T08:22:43.488Z,55394.32
2019-06-08T08:25:12.109Z,55401.42
2019-06-08T08:27:40.499Z,55417.66
2019-06-08T08:30:09.516Z,55434.91
2019-06-08T08:32:38.232Z,55308.05
2019-06-08T08:35:08.880Z,55181.19
2019-06-08T08:37:38.284Z,55069.56
2019-06-08T08:40:08.453Z,55318.20
2019-06-08T08:42:38.741Z,55298.92
2019-06-08T08:45:08.786Z,55154.80
2019-06-08T08:47:38.671Z,55123.35
2019-06-08T08:50:10.127Z,55399.39
2019-06-08T08:52:40.893Z,55337.48
2019-06-08T08:55:08.945Z,55324.29
2019-06-08T08:57:38.546Z,55390.26
2019-06-08T09:00:08.901Z,55539.45
2019-06-08T09:02:37.516Z,55358.79
2019-06-08T09:05:08.379Z,55404.46
2019-06-08T09:07:38.508Z,55360.82
2019-06-08T09:10:11.291Z,55363.87
2019-06-08T09:12:38.911Z,55283.69
2019-06-08T09:15:08.591Z,55163.94
2019-06-08T09:17:38.816Z,55113.20
2019-06-08T09:20:11.021Z,54908.21
2019-06-08T09:22:52.452Z,55094.93
2019-06-08T09:25:10.572Z,54974.17
2019-06-08T09:27:39.520Z,54870.66
2019-06-08T09:30:08.623Z,54820.94
2019-06-08T09:32:38.193Z,54565.23
2019-06-08T09:35:09.060Z,54575.37
2019-06-08T09:37:37.618Z,53317.36
2019-06-08T09:40:06.544Z,54115.75
2019-06-08T09:42:34.937Z,54185.75
2019-06-08T09:45:05.570Z,54146.18
2019-06-08T09:47:34.869Z,54398.82
2019-06-08T09:50:05.690Z,54649.45
2019-06-08T09:52:34.858Z,54548.99
2019-06-08T09:55:05.021Z,54629.15
2019-06-08T09:57:33.452Z,54840.22
2019-06-08T10:00:08.650Z,54739.76
2019-06-08T10:02:31.971Z,54998.52
2019-06-08T10:05:02.427Z,54931.55
2019-06-08T10:07:31.334Z,54753.96
2019-06-08T10:10:02.532Z,54775.27
2019-06-08T10:12:30.051Z,54949.81
2019-06-08T10:14:58.766Z,54860.51
2019-06-08T10:17:27.908Z,54759.04
2019-06-08T10:19:59.261Z,54751.93
2019-06-08T10:22:28.241Z,54811.80
2019-06-08T10:24:58.025Z,54867.62
2019-06-08T10:27:28.353Z,54640.32
2019-06-08T10:29:59.994Z,54320.70
2019-06-08T10:32:28.192Z,54533.77
2019-06-08T10:34:59.978Z,54398.82
2019-06-08T10:37:28.380Z,54328.81
2019-06-08T10:40:00.647Z,54694.09
2019-06-08T10:42:27.491Z,54490.14
2019-06-08T10:45:02.369Z,54682.93
2019-06-08T10:47:29.546Z,54588.57
2019-06-08T10:49:59.525Z,54363.31
2019-06-08T10:52:28.175Z,54635.24
2019-06-08T10:54:59.212Z,54611.91
2019-06-08T10:57:27.990Z,54476.95
2019-06-08T10:59:58.783Z,54642.34
2019-06-08T11:02:30.782Z,54318.67
2019-06-08T11:05:04.660Z,54252.71
2019-06-08T11:07:29.571Z,54252.71
2019-06-08T11:09:58.743Z,54228.37
2019-06-08T11:12:28.468Z,54067.05
2019-06-08T11:14:58.364Z,53971.68
2019-06-08T11:17:27.929Z,54029.51
2019-06-08T11:20:04.795Z,54224.30
2019-06-08T11:22:34.455Z,54057.91
2019-06-08T11:25:05.932Z,53156.07
2019-06-08T11:27:34.433Z,53057.69
2019-06-08T11:30:20.458Z,53668.34
2019-06-08T11:32:42.903Z,53017.11
2019-06-08T11:35:12.630Z,52637.79
2019-06-08T11:37:41.317Z,52649.96
2019-06-08T11:40:12.317Z,52880.19
2019-06-08T11:42:40.528Z,52725.01
2019-06-08T11:45:12.735Z,53068.84
2019-06-08T11:47:58.430Z,53628.78
2019-06-08T11:50:42.251Z,53793.12
2019-06-08T11:53:14.406Z,54047.77
2019-06-08T11:55:43.551Z,54279.09
2019-06-08T11:58:13.757Z,54260.83
2019-06-08T12:01:03.049Z,54214.16
2019-06-08T12:03:31.509Z,54086.32
2019-06-08T12:06:00.003Z,53623.71
2019-06-08T12:08:28.751Z,53886.46
2019-06-08T12:11:01.270Z,53638.93
2019-06-08T12:13:27.898Z,52957.27
2019-06-08T12:15:58.713Z,52630.69
2019-06-08T12:18:27.831Z,52753.41
2019-06-08T12:20:58.401Z,53024.21
2019-06-08T12:23:27.051Z,53552.70
2019-06-08T12:25:55.420Z,53516.18
2019-06-08T12:28:23.799Z,53388.36
2019-06-08T12:30:55.278Z,53191.58
2019-06-08T12:33:23.887Z,53641.97
2019-06-08T12:35:52.402Z,53612.55
2019-06-08T12:38:20.839Z,53546.61
2019-06-08T12:40:49.233Z,53446.18
2019-06-08T12:43:19.826Z,53485.75
2019-06-08T12:45:47.833Z,53741.39
2019-06-08T12:48:20.432Z,53857.04
2019-06-08T12:50:47.832Z,54079.22
2019-06-08T12:53:20.735Z,54216.19
2019-06-08T12:55:47.550Z,53932.11
2019-06-08T12:58:21.823Z,53704.87
2019-06-08T13:00:48.306Z,53721.10
2019-06-08T13:03:18.778Z,53534.44
2019-06-08T13:05:47.399Z,53777.91
2019-06-08T13:08:15.780Z,53841.82
2019-06-08T13:10:44.900Z,53728.20
2019-06-08T13:13:14.434Z,53896.61
2019-06-08T13:15:48.912Z,54234.45
2019-06-08T13:18:19.814Z,53810.37
2019-06-08T13:20:51.478Z,53604.43
2019-06-08T13:23:19.608Z,53458.36
2019-06-08T13:25:48.135Z,53495.89
2019-06-08T13:28:19.210Z,53779.94
2019-06-08T13:30:47.852Z,53882.40
2019-06-08T13:33:16.406Z,53875.30
2019-06-08T13:35:44.830Z,53516.18
2019-06-08T13:38:13.211Z,53510.09
2019-06-08T13:40:41.607Z,53217.95
2019-06-08T13:43:11.239Z,53010.02
2019-06-08T13:45:39.711Z,53711.96
2019-06-08T13:48:12.009Z,53828.63
2019-06-08T13:50:44.010Z,53984.87
2019-06-08T13:53:14.568Z,53891.53
2019-06-08T13:55:53.296Z,53869.21
2019-06-08T13:58:13.674Z,53945.30
2019-06-08T14:00:42.083Z,53704.87
2019-06-08T14:03:10.742Z,53357.93
2019-06-08T14:05:39.291Z,53295.04
2019-06-08T14:08:10.623Z,53235.20
2019-06-08T14:10:39.477Z,53277.80
2019-06-08T14:13:08.324Z,53805.30
2019-06-08T14:15:37.933Z,53829.65
2019-06-08T14:18:08.898Z,53865.16
2019-06-08T14:20:38.543Z,53866.17
2019-06-08T14:23:09.194Z,53679.50
2019-06-08T14:25:50.160Z,53331.56
2019-06-08T14:28:08.936Z,53804.29
2019-06-08T14:30:37.905Z,53736.31
2019-06-08T14:33:08.239Z,53756.60
2019-06-08T14:35:36.503Z,53584.14
2019-06-08T14:38:04.902Z,53299.10
2019-06-08T14:40:33.293Z,53020.16
2019-06-08T14:43:01.672Z,53052.62
2019-06-08T14:45:31.129Z,53305.18
2019-06-08T14:47:59.753Z,53538.50
2019-06-08T14:50:30.684Z,53433.00
2019-06-08T14:52:59.175Z,53267.65
2019-06-08T14:55:32.089Z,53502.99
2019-06-08T14:57:58.281Z,53273.74
2019-06-08T15:00:27.770Z,54037.62
2019-06-08T15:02:58.958Z,54563.20
2019-06-08T15:05:30.695Z,54413.03
2019-06-08T15:08:08.374Z,54593.64
2019-06-08T15:10:43.016Z,54282.14
2019-06-08T15:13:11.898Z,54139.08
2019-06-08T15:15:40.350Z,54057.91
2019-06-08T15:18:11.057Z,53901.68
2019-06-08T15:20:38.929Z,53887.47
2019-06-08T15:23:08.525Z,53939.21
2019-06-08T15:25:38.718Z,53709.94
2019-06-08T15:28:08.183Z,53481.69
2019-06-08T15:30:38.053Z,53736.31
2019-06-08T15:33:06.671Z,53595.30
2019-06-08T15:35:37.506Z,53569.95
2019-06-08T15:38:05.385Z,53519.22
2019-06-08T15:40:33.802Z,53482.70
2019-06-08T15:43:02.281Z,53279.82
2019-06-08T15:45:32.893Z,53738.34
2019-06-08T15:48:01.383Z,53395.46
2019-06-08T15:50:30.662Z,53099.27
2019-06-08T15:53:00.104Z,53567.91
2019-06-08T15:55:31.286Z,53783.99
2019-06-08T15:57:59.033Z,53624.72
2019-06-08T16:00:32.554Z,53431.98
2019-06-08T16:02:58.242Z,53671.39
2019-06-08T16:05:27.727Z,53689.65
2019-06-08T16:07:56.299Z,53819.50
2019-06-08T16:10:26.190Z,54031.54
2019-06-08T16:12:54.696Z,54061.97
2019-06-08T16:15:23.081Z,54216.19
2019-06-08T16:17:51.726Z,53928.05
2019-06-08T16:20:20.425Z,53847.91
2019-06-08T16:22:48.803Z,53809.36
2019-06-08T16:25:17.291Z,53848.92
2019-06-08T16:27:45.667Z,54056.90
2019-06-08T16:30:16.813Z,54100.53
2019-06-08T16:32:45.255Z,54181.69
2019-06-08T16:35:13.710Z,54195.90
2019-06-08T16:37:42.119Z,54316.64
2019-06-08T16:40:11.172Z,54192.86
2019-06-08T16:42:39.574Z,53941.24
2019-06-08T16:45:09.057Z,54181.69
2019-06-08T16:47:43.316Z,54043.71
2019-06-08T16:50:24.099Z,54016.32
2019-06-08T16:52:41.861Z,53997.04
2019-06-08T16:55:10.583Z,53977.77
2019-06-08T16:57:41.071Z,54185.75
2019-06-08T17:02:39.637Z,54021.39
2019-06-08T17:05:08.191Z,54044.73
2019-06-08T17:07:41.086Z,54253.73
2019-06-08T17:10:09.615Z,54111.69
2019-06-08T17:12:40.122Z,54038.64
2019-06-08T17:15:08.835Z,54128.94
2019-06-08T17:17:40.399Z,53886.46
2019-06-08T17:20:09.737Z,53686.61
2019-06-08T17:22:38.801Z,53579.07
2019-06-08T17:25:09.506Z,53625.74
2019-06-08T17:27:38.975Z,53700.81
2019-06-08T17:30:08.974Z,53617.62
2019-06-08T17:32:40.553Z,53692.69
2019-06-08T17:35:10.107Z,53761.68
2019-06-08T17:37:39.965Z,53904.72
2019-06-08T17:40:09.994Z,54014.29
2019-06-08T17:42:39.557Z,53766.75
2019-06-08T17:45:08.988Z,54297.36
2019-06-08T17:47:38.508Z,54187.78
2019-06-08T17:50:07.475Z,53900.66
2019-06-08T17:52:37.052Z,53813.41
2019-06-08T17:55:09.817Z,54064.00
2019-06-08T17:57:48.496Z,54101.54
2019-06-08T18:00:11.225Z,54052.84
2019-06-08T18:02:43.304Z,54123.86
2019-06-08T18:05:10.532Z,54179.66
2019-06-08T18:07:42.287Z,54140.10
2019-06-08T18:10:13.392Z,54290.26
2019-06-08T18:12:49.048Z,54578.42
2019-06-08T18:15:18.391Z,54475.93
2019-06-08T18:17:57.699Z,54590.59
2019-06-08T18:20:28.238Z,54569.29
2019-06-08T18:22:57.800Z,54139.08
2019-06-08T18:25:27.866Z,54407.95
2019-06-08T18:28:07.164Z,54606.83
2019-06-08T18:30:27.695Z,54635.24
2019-06-08T18:32:58.039Z,54462.75
2019-06-08T18:35:27.748Z,54399.84
2019-06-08T18:37:57.830Z,54363.31
2019-06-08T18:40:27.288Z,53979.79
2019-06-08T18:42:57.688Z,54104.59
2019-06-08T18:45:27.666Z,54119.80
2019-06-08T18:48:00.280Z,54097.48
2019-06-08T18:50:30.305Z,54074.15
2019-06-08T18:52:58.696Z,53990.95
2019-06-08T18:55:27.714Z,53988.93
2019-06-08T18:57:57.150Z,53929.07
2019-06-08T19:00:39.790Z,53877.33
2019-06-08T19:03:08.584Z,53861.10
2019-06-08T19:05:40.200Z,53722.11
2019-06-08T19:08:10.026Z,53547.63
2019-06-08T19:10:41.081Z,53526.32
2019-06-08T19:13:10.239Z,53376.19
2019-06-08T19:15:42.486Z,53326.49
2019-06-08T19:18:09.284Z,53052.62
2019-06-08T19:20:42.884Z,53114.49
2019-06-08T19:23:09.138Z,52993.79
2019-06-08T19:25:42.104Z,52941.04
2019-06-08T19:28:08.103Z,53262.58
2019-06-08T19:30:39.440Z,53490.82
2019-06-08T19:33:07.349Z,53699.79
2019-06-08T19:35:35.872Z,53918.92
2019-06-08T19:38:04.321Z,54046.75
2019-06-08T19:40:33.013Z,54141.11
2019-06-08T19:43:01.679Z,53893.56
2019-06-08T19:45:30.178Z,53666.32
2019-06-08T19:47:58.573Z,53468.50
2019-06-08T19:50:28.689Z,53249.39
2019-06-08T19:52:58.081Z,53178.39
2019-06-08T19:55:26.657Z,53059.71
2019-06-08T19:57:57.063Z,52996.83
2019-06-08T20:00:27.515Z,52951.19
2019-06-08T20:02:57.667Z,52786.88
2019-06-08T20:05:27.892Z,52923.80
2019-06-08T20:07:57.474Z,52879.18
2019-06-08T20:10:28.044Z,52878.16
2019-06-08T20:12:57.625Z,52879.18
2019-06-08T20:15:26.229Z,52897.43
2019-06-08T20:17:57.256Z,52870.05
2019-06-08T20:20:24.767Z,52864.97
2019-06-08T20:22:53.617Z,52891.34
2019-06-08T20:25:22.019Z,52893.37
2019-06-08T20:27:51.653Z,52892.36
2019-06-08T20:30:20.354Z,52930.90
2019-06-08T20:32:51.916Z,52891.34
2019-06-08T20:35:19.151Z,52952.20
2019-06-08T20:37:47.926Z,52948.14
2019-06-08T20:40:17.986Z,52936.99
2019-06-08T20:42:49.599Z,52994.80
2019-06-08T20:45:17.339Z,53029.29
2019-06-08T20:47:49.465Z,52978.57
2019-06-08T20:50:17.637Z,53012.04
2019-06-08T20:52:47.258Z,53053.63
2019-06-08T20:55:17.481Z,53061.75
2019-06-08T20:57:48.163Z,53055.66
2019-06-08T21:00:16.599Z,53059.71
2019-06-08T21:02:46.351Z,53136.80
2019-06-08T21:05:15.112Z,53141.87
2019-06-08T21:07:43.819Z,53136.80
2019-06-08T21:10:13.698Z,53140.86
2019-06-08T21:12:42.082Z,53196.65
2019-06-08T21:15:11.296Z,53193.61
2019-06-08T21:17:39.680Z,53174.33
2019-06-08T21:20:08.677Z,53172.30
2019-06-08T21:22:37.190Z,53182.45
2019-06-08T21:25:08.955Z,53164.19
2019-06-08T21:27:38.526Z,53257.51
2019-06-08T21:30:19.943Z,53230.12
2019-06-08T21:32:39.517Z,53243.31
2019-06-08T21:35:18.184Z,53227.08
2019-06-08T21:37:48.173Z,53226.06
2019-06-08T21:40:17.596Z,53266.64
2019-06-08T21:42:48.826Z,53245.34
2019-06-08T21:45:18.745Z,53327.50
2019-06-08T21:47:48.453Z,53317.36
2019-06-08T21:50:18.632Z,53290.98
2019-06-08T21:52:48.627Z,53298.08
2019-06-08T21:55:17.753Z,53332.57
2019-06-08T21:57:49.571Z,53335.62
2019-06-08T22:00:38.095Z,53333.59
2019-06-08T22:02:48.105Z,53357.93
2019-06-08T22:05:19.209Z,53339.67
2019-06-08T22:07:47.592Z,53332.57
2019-06-08T22:10:17.948Z,53357.93
2019-06-08T22:12:48.306Z,53402.57
2019-06-08T22:15:18.279Z,53411.70
2019-06-08T22:17:47.677Z,53406.62
2019-06-08T22:20:18.476Z,53451.25
2019-06-08T22:22:47.290Z,53463.43
2019-06-08T22:25:17.515Z,53452.27
2019-06-08T22:27:46.424Z,53463.43
2019-06-08T22:30:34.740Z,53500.96
2019-06-08T22:32:47.381Z,53467.49
2019-06-08T22:35:16.296Z,53496.91
2019-06-08T22:37:44.976Z,53475.60
2019-06-08T22:40:13.712Z,53532.41
2019-06-08T22:42:42.353Z,53515.16
2019-06-08T22:45:11.089Z,53512.12
2019-06-08T22:47:39.744Z,53525.31
2019-06-08T22:50:08.769Z,53510.09
2019-06-08T22:52:37.755Z,53523.28
2019-06-08T22:55:10.710Z,53512.12
2019-06-08T22:57:37.663Z,53490.82
2019-06-08T23:00:14.522Z,53535.45
2019-06-08T23:02:38.413Z,53541.54
2019-06-08T23:05:08.941Z,53576.03
2019-06-08T23:07:37.619Z,53545.60
2019-06-08T23:10:09.409Z,53591.25
2019-06-08T23:12:38.311Z,53540.52
2019-06-08T23:15:08.889Z,53579.07
2019-06-08T23:17:38.782Z,53613.57
2019-06-08T23:20:08.732Z,53582.12
2019-06-08T23:22:38.398Z,53642.98
2019-06-08T23:25:09.553Z,53630.81
2019-06-08T23:27:37.997Z,53645.01
2019-06-08T23:30:10.210Z,53663.27
2019-06-08T23:32:38.713Z,53672.40
2019-06-08T23:35:09.456Z,53620.66
2019-06-08T23:37:38.378Z,53703.85
2019-06-08T23:40:07.865Z,53706.89
2019-06-08T23:42:38.288Z,53665.30
2019-06-08T23:45:10.527Z,53706.89
2019-06-08T23:47:38.655Z,53708.92
2019-06-08T23:50:11.251Z,53708.92
2019-06-08T23:52:39.112Z,53689.65
2019-06-08T23:55:10.488Z,53754.57
2019-06-08T23:57:38.506Z,53773.85
